Explorer - northwestern half: Past 24 Hour Conditions

 

Vancouver Int'l Airport

01:00 AM PDT 24 July 2014
This table is a summary of hourly weather conditions for the past 24 hours.
Date / Time
(PDT)
Wind(knots) Conditions Visibility(km) Pressure(kPa) Air tempC) Relative humidity(%) Dew pointC)
24 July 2014
1:00 E 8 Light Rain 19 101.7 14 95 13
0:00 E 8 Partly Cloudy 19 101.7 14 95 13
23 July 2014
23:00 E 8 Partly Cloudy 19 101.7 14 94 13
22:00 ESE 9 Light Rain 16 101.7 14 93 13
21:00 SE 9 Light Rain 16 101.7 14 94 13
20:00 SSE 9 Light Rain 10 101.6 14 92 13
19:00 SW 11 gust 16 Light Rain 16 101.5 16 79 12
18:00 SSW 12 gust 19 Light Rain 24 101.5 16 88 14
17:00 SSE 11 Light Rainshower 19 101.5 17 84 14
16:00 SE 9 Light Rain 19 101.5 17 89 15
15:00 SE 15 Mostly Cloudy 24 101.5 19 78 15
14:00 SE 13 Light Rainshower 24 101.5 19 82 16
13:00 SE 9 Light Rainshower 24 101.5 18 85 16
12:00 SE 10 Partly Cloudy 24 101.5 19 82 16
11:00 E 8 Light Rain 24 101.5 19 82 16
10:00 E 5 Partly Cloudy 32 101.5 18 83 15
9:00 S 2 Light Rain 48 101.5 17 85 15
8:00 calm Mostly Cloudy 48 101.4 17 84 14
7:00 N 1 Partly Cloudy 48 101.5 17 83 14
6:00 E 3 Mostly Cloudy 32 101.5 15 86 13
5:00 E 2 Mostly Cloudy 32 101.5 15 84 13
4:00 NNE 5 Mostly Cloudy 32 101.6 16 83 13
3:00 N 1 Mainly Clear 32 101.6 16 83 13
2:00 NNE 4 Mainly Clear 32 101.6 15 88 13
1:00 ESE 3 Mostly Cloudy 32 101.7 17 79 13
 
Map of Pacific - South Coast marine weather areas Tsawwassen Ferry Terminal South Nomad - 46036 Sentry Shoal - 46131 South Brooks - 46132 Halibut Bank - 46146 South Moresby - 46147 South Hecate Strait - 46185 West Sea Otter - 46204 La Perouse Bank - 46206 East Dellwood - 46207 Discovery Island Esquimalt Harbour Kelp Reefs Malahat Race Rocks Lightstation Saturna Island Sheringham Point University of Victoria Victoria Gonzales Victoria Int'l Airport Ballenas Islands Campbell River Airport Comox Airport Entrance Island Fanny Island Nanaimo Airport Port Hardy Airport Sisters Islets Estevan Point Sartine Island Solander Island Tofino Airport Grief Point Powell River Airport Sechelt Cape St.James Bella Bella Airport Bella Coola Airport Cathedral Point Herbert Island Point Atkinson Sand Heads Lightstation Vancouver Harbour Vancouver Int'l Airport West Vancouver Port Alberni Howe Sound - Pam Rocks Squamish Airport